createdAt,value
2023-04-27T00:00:00.506Z,-0.20
2023-04-27T00:02:28.204Z,-0.30
2023-04-27T00:04:56.445Z,-0.30
2023-04-27T00:07:24.259Z,-0.40
2023-04-27T00:09:52.145Z,-0.40
2023-04-27T00:12:19.735Z,-0.40
2023-04-27T00:14:47.200Z,-0.40
2023-04-27T00:17:14.724Z,-0.40
2023-04-27T00:19:42.404Z,-0.50
2023-04-27T00:22:09.883Z,-0.50
2023-04-27T00:24:37.312Z,-0.50
2023-04-27T00:27:04.766Z,-0.50
2023-04-27T00:29:32.212Z,-0.40
2023-04-27T00:32:01.247Z,-0.40
2023-04-27T00:34:28.748Z,-0.50
2023-04-27T00:36:57.455Z,-0.40
2023-04-27T00:39:24.899Z,-0.40
2023-04-27T00:41:52.389Z,-0.40
2023-04-27T00:44:25.668Z,-0.50
2023-04-27T00:46:53.570Z,-0.50
2023-04-27T00:49:22.448Z,-0.50
2023-04-27T00:51:50.020Z,-0.50
2023-04-27T00:54:21.024Z,-0.40
2023-04-27T00:56:52.229Z,-0.50
2023-04-27T00:59:20.548Z,-0.60
2023-04-27T01:01:48.694Z,-0.70
2023-04-27T01:04:19.814Z,-0.70
2023-04-27T01:06:47.997Z,-0.70
2023-04-27T01:09:16.593Z,-0.80
2023-04-27T01:11:43.994Z,-0.80
2023-04-27T01:14:11.731Z,-0.80
2023-04-27T01:16:39.553Z,-0.90
2023-04-27T01:19:08.110Z,-0.80
2023-04-27T01:21:35.811Z,-0.80
2023-04-27T01:24:08.063Z,-0.90
2023-04-27T01:26:38.129Z,-0.80
2023-04-27T01:29:05.772Z,-0.80
2023-04-27T01:31:33.275Z,-0.80
2023-04-27T01:34:00.823Z,-0.80
2023-04-27T01:36:28.252Z,-0.80
2023-04-27T01:38:56.939Z,-0.90
2023-04-27T01:41:24.398Z,-0.90
2023-04-27T01:43:51.881Z,-0.90
2023-04-27T01:46:19.302Z,-0.90
2023-04-27T01:48:46.793Z,-0.80
2023-04-27T01:51:14.204Z,-0.90
2023-04-27T01:53:42.048Z,-0.90
2023-04-27T01:56:10.447Z,-0.90
2023-04-27T01:58:38.246Z,-0.90
2023-04-27T02:01:05.810Z,-1.00
2023-04-27T02:03:33.569Z,-0.90
2023-04-27T02:06:01.160Z,-0.90
2023-04-27T02:08:28.702Z,-0.90
2023-04-27T02:10:56.213Z,-1.00
2023-04-27T02:13:24.182Z,-1.00
2023-04-27T02:15:51.601Z,-0.90
2023-04-27T02:18:20.355Z,-0.90
2023-04-27T02:20:48.193Z,-0.90
2023-04-27T02:23:15.694Z,-0.90
2023-04-27T02:25:46.762Z,-0.90
2023-04-27T02:28:14.530Z,-0.80
2023-04-27T02:30:42.475Z,-0.90
2023-04-27T02:33:10.148Z,-0.90
2023-04-27T02:35:37.721Z,-0.90
2023-04-27T02:38:05.484Z,-0.90
2023-04-27T02:40:37.650Z,-0.80
2023-04-27T02:43:07.275Z,-0.80
2023-04-27T02:45:38.423Z,-0.80
2023-04-27T02:48:07.092Z,-0.80
2023-04-27T02:50:40.055Z,-0.80
2023-04-27T02:53:07.656Z,-0.70
2023-04-27T02:55:35.267Z,-0.70
2023-04-27T02:58:02.905Z,-0.70
2023-04-27T03:00:30.642Z,-0.70
2023-04-27T03:02:58.285Z,-0.70
2023-04-27T03:05:29.148Z,-0.70
2023-04-27T03:07:56.720Z,-0.70
2023-04-27T03:10:25.585Z,-0.70
2023-04-27T03:12:53.059Z,-0.70
2023-04-27T03:15:22.758Z,-0.70
2023-04-27T03:17:50.249Z,-0.80
2023-04-27T03:20:18.012Z,-0.80
2023-04-27T03:22:46.558Z,-0.70
2023-04-27T03:25:14.162Z,-0.70
2023-04-27T03:27:43.463Z,-0.80
2023-04-27T03:30:13.205Z,-0.80
2023-04-27T03:32:40.799Z,-0.80
2023-04-27T03:35:09.916Z,-0.90
2023-04-27T03:37:37.331Z,-0.90
2023-04-27T03:40:08.834Z,-0.90
2023-04-27T03:42:36.354Z,-0.90
2023-04-27T03:45:05.271Z,-0.90
2023-04-27T03:47:32.907Z,-0.90
2023-04-27T03:50:00.441Z,-0.90
2023-04-27T03:52:27.838Z,-0.90
2023-04-27T03:54:55.646Z,-0.90
2023-04-27T03:57:23.255Z,-0.90
2023-04-27T03:59:50.802Z,-0.80
2023-04-27T04:02:18.605Z,-0.80
2023-04-27T04:04:46.355Z,-0.80
2023-04-27T04:07:13.881Z,-0.80
2023-04-27T04:09:43.508Z,-0.80
2023-04-27T04:12:11.955Z,-0.80
2023-04-27T04:14:40.933Z,-0.70
2023-04-27T04:17:10.994Z,-0.70
2023-04-27T04:19:41.481Z,-0.70
2023-04-27T04:22:08.961Z,-0.60
2023-04-27T04:24:36.514Z,-0.60
2023-04-27T04:27:04.779Z,-0.50
2023-04-27T04:29:33.028Z,-0.50
2023-04-27T04:32:00.680Z,-0.50
2023-04-27T04:34:29.382Z,-0.40
2023-04-27T04:36:59.565Z,-0.30
2023-04-27T04:39:31.419Z,-0.30
2023-04-27T04:41:59.008Z,-0.20
2023-04-27T04:44:29.399Z,-0.10
2023-04-27T04:46:57.700Z,0.00
2023-04-27T04:49:27.069Z,0.20
2023-04-27T04:51:54.501Z,0.30
2023-04-27T04:54:22.279Z,0.40
2023-04-27T04:56:49.685Z,0.60
2023-04-27T04:59:17.727Z,0.70
2023-04-27T05:01:45.224Z,1.00
2023-04-27T05:04:12.867Z,1.20
2023-04-27T05:06:40.768Z,1.50
2023-04-27T05:09:08.447Z,1.80
2023-04-27T05:11:36.081Z,1.90
2023-04-27T05:14:03.663Z,2.00
2023-04-27T05:16:31.369Z,2.10
2023-04-27T05:18:59.249Z,2.20
2023-04-27T05:21:26.777Z,2.40
2023-04-27T05:23:54.426Z,2.50
2023-04-27T05:26:22.032Z,2.60
2023-04-27T05:28:49.717Z,2.80
2023-04-27T05:31:17.287Z,2.90
2023-04-27T05:33:45.676Z,3.00
2023-04-27T05:36:13.882Z,3.30
2023-04-27T05:38:41.841Z,3.50
2023-04-27T05:41:12.679Z,3.60
2023-04-27T05:43:41.114Z,3.70
2023-04-27T05:46:09.325Z,3.80
2023-04-27T05:48:37.294Z,3.90
2023-04-27T05:51:05.460Z,4.00
2023-04-27T05:53:34.151Z,4.30
2023-04-27T05:56:01.950Z,4.40
2023-04-27T05:58:29.692Z,4.60
2023-04-27T06:00:57.724Z,4.60
2023-04-27T06:03:28.319Z,4.70
2023-04-27T06:06:01.054Z,4.90
2023-04-27T06:08:29.779Z,5.10
2023-04-27T06:10:59.594Z,5.20
2023-04-27T06:13:27.270Z,5.40
2023-04-27T06:15:56.187Z,5.60
2023-04-27T06:18:24.436Z,5.80
2023-04-27T06:20:58.900Z,6.00
2023-04-27T06:23:26.831Z,6.00
2023-04-27T06:25:55.614Z,6.00
2023-04-27T06:28:23.231Z,6.00
2023-04-27T06:30:50.985Z,6.30
2023-04-27T06:33:18.620Z,6.30
2023-04-27T06:35:47.536Z,6.50
2023-04-27T06:38:16.811Z,6.90
2023-04-27T06:40:54.283Z,7.10
2023-04-27T06:43:21.953Z,7.40
2023-04-27T06:45:49.791Z,7.60
2023-04-27T06:48:17.537Z,7.80
2023-04-27T06:50:45.299Z,8.10
2023-04-27T06:53:13.184Z,8.80
2023-04-27T06:55:43.929Z,9.00
2023-04-27T06:58:12.750Z,8.90
2023-04-27T07:00:40.874Z,9.10
2023-04-27T07:03:08.718Z,9.20
2023-04-27T07:05:36.626Z,9.60
2023-04-27T07:08:07.935Z,10.00
2023-04-27T07:10:36.889Z,10.00
2023-04-27T07:13:17.007Z,10.40
2023-04-27T07:15:58.078Z,10.80
2023-04-27T07:18:28.415Z,11.30
2023-04-27T07:20:59.805Z,11.80
2023-04-27T07:23:27.331Z,12.60
2023-04-27T07:25:55.407Z,12.60
2023-04-27T07:28:32.092Z,12.30
2023-04-27T07:31:01.997Z,12.90
2023-04-27T07:33:37.705Z,13.80
2023-04-27T07:36:06.218Z,14.60
2023-04-27T07:38:36.438Z,15.50
2023-04-27T07:41:05.957Z,16.10
2023-04-27T07:43:42.518Z,15.90
2023-04-27T07:46:14.999Z,15.60
2023-04-27T07:48:45.025Z,15.40
2023-04-27T07:51:16.087Z,15.80
2023-04-27T07:53:47.905Z,15.80
2023-04-27T07:56:18.179Z,16.20
2023-04-27T07:58:48.325Z,16.40
2023-04-27T08:01:17.247Z,16.30
2023-04-27T08:03:46.479Z,16.40
2023-04-27T08:06:14.959Z,16.10
2023-04-27T08:08:42.678Z,16.20
2023-04-27T08:11:11.715Z,16.30
2023-04-27T08:13:42.117Z,16.50
2023-04-27T08:16:10.165Z,15.70
2023-04-27T08:18:37.992Z,14.90
2023-04-27T08:21:06.155Z,14.30
2023-04-27T08:23:33.610Z,13.80
2023-04-27T08:26:01.581Z,13.00
2023-04-27T08:28:29.312Z,13.10
2023-04-27T08:31:00.215Z,13.20
2023-04-27T08:33:27.912Z,12.80
2023-04-27T08:35:55.715Z,12.20
2023-04-27T08:38:25.030Z,12.00
2023-04-27T08:40:53.246Z,11.90
2023-04-27T08:43:26.414Z,11.70
2023-04-27T08:46:02.295Z,11.60
2023-04-27T08:48:30.579Z,11.90
2023-04-27T08:51:00.919Z,12.20
2023-04-27T08:53:28.762Z,12.50
2023-04-27T08:55:57.897Z,12.70
2023-04-27T08:58:46.728Z,12.80
2023-04-27T09:01:14.333Z,12.70
2023-04-27T09:03:42.669Z,12.50
2023-04-27T09:06:11.128Z,12.70
2023-04-27T09:08:47.152Z,12.80
2023-04-27T09:11:16.122Z,12.80
2023-04-27T09:13:45.593Z,12.90
2023-04-27T09:16:17.398Z,13.60
2023-04-27T09:18:45.432Z,14.10
2023-04-27T09:21:35.095Z,14.20
2023-04-27T09:24:13.110Z,13.70
2023-04-27T09:26:43.080Z,13.60
2023-04-27T09:29:10.888Z,13.90
2023-04-27T09:31:38.870Z,14.60
2023-04-27T09:34:06.528Z,14.70
2023-04-27T09:36:34.502Z,14.50
2023-04-27T09:39:05.479Z,13.60
2023-04-27T09:41:33.548Z,12.70
2023-04-27T09:44:02.188Z,12.60
2023-04-27T09:46:35.688Z,12.10
2023-04-27T09:49:08.568Z,12.10
2023-04-27T09:51:36.267Z,12.40
2023-04-27T09:54:05.206Z,13.00
2023-04-27T09:57:10.355Z,13.00
2023-04-27T09:59:56.539Z,12.90
2023-04-27T10:02:26.992Z,12.40
2023-04-27T10:05:36.059Z,12.00
2023-04-27T10:08:05.383Z,11.60
2023-04-27T10:10:47.302Z,11.40
2023-04-27T10:13:23.355Z,11.40
2023-04-27T10:15:54.556Z,11.70
2023-04-27T10:18:33.412Z,12.00
2023-04-27T10:21:11.036Z,12.30
2023-04-27T10:23:51.105Z,13.00
2023-04-27T10:26:25.802Z,13.70
2023-04-27T10:29:12.496Z,13.70
2023-04-27T10:31:48.641Z,13.60
2023-04-27T10:34:20.679Z,13.60
2023-04-27T10:36:49.380Z,13.30
2023-04-27T10:39:19.021Z,12.80
2023-04-27T10:41:51.851Z,11.90
2023-04-27T10:44:30.673Z,11.80
2023-04-27T10:47:00.324Z,11.80
2023-04-27T10:49:31.448Z,11.60
2023-04-27T10:52:02.922Z,11.90
2023-04-27T10:54:31.394Z,11.90
2023-04-27T10:57:10.663Z,12.10
2023-04-27T10:59:57.406Z,12.20
2023-04-27T11:02:29.537Z,12.50
2023-04-27T11:04:57.441Z,12.90
2023-04-27T11:07:29.413Z,12.70
2023-04-27T11:09:57.118Z,12.80
2023-04-27T11:12:27.444Z,13.30
2023-04-27T11:14:59.083Z,14.30
2023-04-27T11:17:30.488Z,15.10
2023-04-27T11:20:01.106Z,15.20
2023-04-27T11:22:28.854Z,14.90
2023-04-27T11:24:56.612Z,14.80
2023-04-27T11:27:25.433Z,14.50
2023-04-27T11:29:52.832Z,14.10
2023-04-27T11:32:24.180Z,14.30
2023-04-27T11:34:55.121Z,14.50
2023-04-27T11:37:29.837Z,14.30
2023-04-27T11:40:04.544Z,14.40
2023-04-27T11:42:35.152Z,14.10
2023-04-27T11:45:08.076Z,14.30
2023-04-27T11:47:46.856Z,14.70
2023-04-27T11:50:14.491Z,15.50
2023-04-27T11:52:42.154Z,15.10
2023-04-27T11:55:16.484Z,14.10
2023-04-27T11:57:44.463Z,14.00
2023-04-27T12:00:14.386Z,13.80
2023-04-27T12:02:44.097Z,13.60
2023-04-27T12:05:14.835Z,13.90
2023-04-27T12:07:43.499Z,14.00
2023-04-27T12:10:11.967Z,14.30
2023-04-27T12:12:39.605Z,14.70
2023-04-27T12:15:08.804Z,15.30
2023-04-27T12:17:36.662Z,15.60
2023-04-27T12:20:05.236Z,15.50
2023-04-27T12:22:33.542Z,15.40
2023-04-27T12:25:01.868Z,14.50
2023-04-27T12:27:30.132Z,14.60
2023-04-27T12:30:00.269Z,15.00
2023-04-27T12:32:28.460Z,15.40
2023-04-27T12:34:56.090Z,15.60
2023-04-27T12:37:25.423Z,15.60
2023-04-27T12:39:54.342Z,15.50
2023-04-27T12:42:24.239Z,15.80
2023-04-27T12:44:52.373Z,16.10
2023-04-27T12:47:45.987Z,16.10
2023-04-27T12:50:10.188Z,15.10
2023-04-27T12:52:37.807Z,14.90
2023-04-27T12:55:06.498Z,15.50
2023-04-27T12:57:34.399Z,16.00
2023-04-27T13:00:10.479Z,16.20
2023-04-27T13:02:38.054Z,15.90
2023-04-27T13:05:07.940Z,16.10
2023-04-27T13:07:36.039Z,15.70
2023-04-27T13:10:07.206Z,15.60
2023-04-27T13:12:37.662Z,15.50
2023-04-27T13:15:06.557Z,15.90
2023-04-27T13:17:34.135Z,16.00
2023-04-27T13:20:04.670Z,16.00
2023-04-27T13:22:32.294Z,16.40
2023-04-27T13:24:59.930Z,16.30
2023-04-27T13:27:30.935Z,15.40
2023-04-27T13:29:58.501Z,15.20
2023-04-27T13:32:34.754Z,15.00
2023-04-27T13:35:06.103Z,14.20
2023-04-27T13:37:37.360Z,14.30
2023-04-27T13:40:06.996Z,14.10
2023-04-27T13:42:55.287Z,14.10
2023-04-27T13:45:22.746Z,14.40
2023-04-27T13:47:50.290Z,14.70
2023-04-27T13:50:18.029Z,14.60
2023-04-27T13:52:45.651Z,14.70
2023-04-27T13:55:13.389Z,14.90
2023-04-27T13:57:41.008Z,14.90
2023-04-27T14:00:11.632Z,14.70
2023-04-27T14:02:39.695Z,14.30
2023-04-27T14:05:08.009Z,13.80
2023-04-27T14:07:35.846Z,13.90
2023-04-27T14:10:04.255Z,14.10
2023-04-27T14:12:32.474Z,14.40
2023-04-27T14:15:00.054Z,14.70
2023-04-27T14:17:27.507Z,15.00
2023-04-27T14:19:55.100Z,15.20
2023-04-27T14:22:22.602Z,15.20
2023-04-27T14:24:50.041Z,15.00
2023-04-27T14:27:17.603Z,14.80
2023-04-27T14:29:45.063Z,14.70
2023-04-27T14:32:12.863Z,14.80
2023-04-27T14:34:41.098Z,15.10
2023-04-27T14:37:08.672Z,15.10
2023-04-27T14:39:36.466Z,14.90
2023-04-27T14:42:04.297Z,14.60
2023-04-27T14:44:31.866Z,14.30
2023-04-27T14:46:59.730Z,14.30
2023-04-27T14:49:27.321Z,14.40
2023-04-27T14:51:54.802Z,14.60
2023-04-27T14:54:22.170Z,14.40
2023-04-27T14:56:49.646Z,14.30
2023-04-27T14:59:17.740Z,14.10
2023-04-27T15:01:45.250Z,13.90
2023-04-27T15:04:12.899Z,13.80
2023-04-27T15:06:40.472Z,14.10
2023-04-27T15:09:08.018Z,14.30
2023-04-27T15:11:35.510Z,14.10
2023-04-27T15:14:02.862Z,14.20
2023-04-27T15:16:30.382Z,14.10
2023-04-27T15:18:57.909Z,14.00
2023-04-27T15:21:25.351Z,14.20
2023-04-27T15:23:52.799Z,14.10
2023-04-27T15:26:20.286Z,13.60
2023-04-27T15:28:47.681Z,13.40
2023-04-27T15:31:15.721Z,13.50
2023-04-27T15:33:43.184Z,13.20
2023-04-27T15:36:11.208Z,13.40
2023-04-27T15:38:38.622Z,14.00
2023-04-27T15:41:06.307Z,14.20
2023-04-27T15:43:33.720Z,14.50
2023-04-27T15:46:04.939Z,14.60
2023-04-27T15:48:32.796Z,15.40
2023-04-27T15:51:00.216Z,15.80
2023-04-27T15:53:27.674Z,15.90
2023-04-27T15:55:55.214Z,15.10
2023-04-27T15:58:22.630Z,15.10
2023-04-27T16:00:50.153Z,14.80
2023-04-27T16:03:17.786Z,14.70
2023-04-27T16:05:45.942Z,14.60
2023-04-27T16:08:13.396Z,15.20
2023-04-27T16:10:40.941Z,14.90
2023-04-27T16:13:08.464Z,14.60
2023-04-27T16:15:35.865Z,14.60
2023-04-27T16:18:03.678Z,14.40
2023-04-27T16:20:32.037Z,13.70
2023-04-27T16:23:00.599Z,13.30
2023-04-27T16:25:28.171Z,13.10
2023-04-27T16:27:58.200Z,12.80
2023-04-27T16:30:25.802Z,12.70
2023-04-27T16:32:53.309Z,12.60
2023-04-27T16:35:20.885Z,12.50
2023-04-27T16:37:49.781Z,12.40
2023-04-27T16:40:17.524Z,12.30
2023-04-27T16:42:45.034Z,12.20
2023-04-27T16:45:12.451Z,12.00
2023-04-27T16:47:40.014Z,11.90
2023-04-27T16:50:07.676Z,11.90
2023-04-27T16:52:35.103Z,11.80
2023-04-27T16:55:02.671Z,11.70
2023-04-27T16:57:30.111Z,11.70
2023-04-27T16:59:57.510Z,11.60
2023-04-27T17:02:25.860Z,11.50
2023-04-27T17:04:54.730Z,11.50
2023-04-27T17:07:22.193Z,11.30
2023-04-27T17:09:49.634Z,11.30
2023-04-27T17:12:17.411Z,11.20
2023-04-27T17:14:44.896Z,11.20
2023-04-27T17:17:12.321Z,11.10
2023-04-27T17:19:39.767Z,11.10
2023-04-27T17:22:10.817Z,11.10
2023-04-27T17:24:38.231Z,11.00
2023-04-27T17:27:05.748Z,11.00
2023-04-27T17:29:33.183Z,10.90
2023-04-27T17:32:00.696Z,10.90
2023-04-27T17:34:28.084Z,10.80
2023-04-27T17:36:55.626Z,10.70
2023-04-27T17:39:25.267Z,10.60
2023-04-27T17:41:52.894Z,10.60
2023-04-27T17:44:20.599Z,10.40
2023-04-27T17:46:49.850Z,10.40
2023-04-27T17:49:18.311Z,10.30
2023-04-27T17:51:46.557Z,10.20
2023-04-27T17:54:14.045Z,10.00
2023-04-27T17:56:41.585Z,10.00
2023-04-27T17:59:09.163Z,9.80
2023-04-27T18:01:36.716Z,9.70
2023-04-27T18:04:07.189Z,9.60
2023-04-27T18:06:34.878Z,9.40
2023-04-27T18:09:03.220Z,9.20
2023-04-27T18:11:30.692Z,9.00
2023-04-27T18:13:58.371Z,8.90
2023-04-27T18:16:25.957Z,8.80
2023-04-27T18:18:53.408Z,8.60
2023-04-27T18:21:21.010Z,8.50
2023-04-27T18:23:48.451Z,8.20
2023-04-27T18:26:16.623Z,7.90
2023-04-27T18:28:43.949Z,7.60
2023-04-27T18:31:18.400Z,7.40
2023-04-27T18:33:46.526Z,7.20
2023-04-27T18:36:14.130Z,6.90
2023-04-27T18:38:41.585Z,6.80
2023-04-27T18:41:09.155Z,6.80
2023-04-27T18:43:37.019Z,6.70
2023-04-27T18:46:04.930Z,6.70
2023-04-27T18:48:32.727Z,6.80
2023-04-27T18:51:00.438Z,6.70
2023-04-27T18:53:28.358Z,6.50
2023-04-27T18:55:56.148Z,6.40
2023-04-27T18:58:23.866Z,6.30
2023-04-27T19:00:51.389Z,6.20
2023-04-27T19:03:19.187Z,6.10
2023-04-27T19:05:46.987Z,5.90
2023-04-27T19:08:14.424Z,5.90
2023-04-27T19:10:41.835Z,5.90
2023-04-27T19:13:09.343Z,5.80
2023-04-27T19:15:36.807Z,5.80
2023-04-27T19:18:10.658Z,5.70
2023-04-27T19:20:40.421Z,5.70
2023-04-27T19:23:09.681Z,5.60
2023-04-27T19:25:37.307Z,5.60
2023-04-27T19:28:05.889Z,5.50
2023-04-27T19:30:34.002Z,5.40
2023-04-27T19:33:01.620Z,5.30
2023-04-27T19:35:29.181Z,5.30
2023-04-27T19:37:56.610Z,5.40
2023-04-27T19:40:24.063Z,5.30
2023-04-27T19:42:51.588Z,5.20
2023-04-27T19:45:19.149Z,5.00
2023-04-27T19:47:47.988Z,4.90
2023-04-27T19:50:16.640Z,4.80
2023-04-27T19:52:44.195Z,4.80
2023-04-27T19:55:11.776Z,4.70
2023-04-27T19:57:39.198Z,4.60
2023-04-27T20:00:10.306Z,4.60
2023-04-27T20:02:43.591Z,4.50
2023-04-27T20:05:11.636Z,4.40
2023-04-27T20:07:39.293Z,4.40
2023-04-27T20:10:07.374Z,4.40
2023-04-27T20:15:06.550Z,4.30
2023-04-27T20:17:34.699Z,4.40
2023-04-27T20:20:02.267Z,4.40
2023-04-27T20:22:29.769Z,4.40
2023-04-27T20:24:59.221Z,4.50
2023-04-27T20:27:26.732Z,4.70
2023-04-27T20:29:54.112Z,5.00
2023-04-27T20:32:21.522Z,5.00
2023-04-27T20:34:48.914Z,5.00
2023-04-27T20:37:17.141Z,4.90
2023-04-27T20:39:44.717Z,4.70
2023-04-27T20:42:12.767Z,4.60
2023-04-27T20:44:40.222Z,4.40
2023-04-27T20:47:07.704Z,4.30
2023-04-27T20:49:35.764Z,4.20
2023-04-27T20:52:03.861Z,4.10
2023-04-27T20:54:32.854Z,4.00
2023-04-27T20:57:08.557Z,3.90
2023-04-27T20:59:36.094Z,3.80
2023-04-27T21:02:03.624Z,3.80
2023-04-27T21:04:31.300Z,3.80
2023-04-27T21:06:58.822Z,3.80
2023-04-27T21:09:26.345Z,3.80
2023-04-27T21:11:53.881Z,3.60
2023-04-27T21:14:21.302Z,3.70
2023-04-27T21:16:48.967Z,3.60
2023-04-27T21:19:17.060Z,3.70
2023-04-27T21:21:44.374Z,3.70
2023-04-27T21:24:11.836Z,3.80
2023-04-27T21:26:39.336Z,3.80
2023-04-27T21:29:08.232Z,3.80
2023-04-27T21:31:36.011Z,3.80
2023-04-27T21:34:03.722Z,3.80
2023-04-27T21:36:32.227Z,3.90
2023-04-27T21:38:59.863Z,3.70
2023-04-27T21:41:27.451Z,3.50
2023-04-27T21:43:54.968Z,3.40
2023-04-27T21:46:24.101Z,3.40
2023-04-27T21:48:51.741Z,3.40
2023-04-27T21:51:19.502Z,3.30
2023-04-27T21:53:46.959Z,3.30
2023-04-27T21:56:14.427Z,3.20
2023-04-27T21:58:41.994Z,3.20
2023-04-27T22:01:10.415Z,3.10
2023-04-27T22:03:38.271Z,3.10
2023-04-27T22:06:06.408Z,3.10
2023-04-27T22:08:35.187Z,3.00
2023-04-27T22:11:02.791Z,3.00
2023-04-27T22:13:30.420Z,3.00
2023-04-27T22:15:57.880Z,3.00
2023-04-27T22:18:25.396Z,3.00
2023-04-27T22:20:54.478Z,3.00
2023-04-27T22:23:21.883Z,2.90
2023-04-27T22:25:49.270Z,2.80
2023-04-27T22:28:16.728Z,2.90
2023-04-27T22:30:45.445Z,2.80
2023-04-27T22:33:13.244Z,2.70
2023-04-27T22:35:40.768Z,2.70
2023-04-27T22:38:09.167Z,2.60
2023-04-27T22:40:36.983Z,2.70
2023-04-27T22:43:04.683Z,2.70
2023-04-27T22:45:32.018Z,2.70
2023-04-27T22:47:59.498Z,2.70
2023-04-27T22:50:27.268Z,2.70
2023-04-27T22:52:54.896Z,2.70
2023-04-27T22:55:22.432Z,2.60
2023-04-27T22:57:50.175Z,2.60
2023-04-27T23:00:18.081Z,2.60
2023-04-27T23:02:45.832Z,2.50
2023-04-27T23:05:13.477Z,2.60
2023-04-27T23:07:43.030Z,2.80
2023-04-27T23:10:11.069Z,2.90
2023-04-27T23:12:38.901Z,2.90
2023-04-27T23:15:06.978Z,2.90
2023-04-27T23:17:34.475Z,2.90
2023-04-27T23:22:35.704Z,2.90
2023-04-27T23:25:03.310Z,2.90
2023-04-27T23:27:30.815Z,2.90
2023-04-27T23:29:58.159Z,2.90
2023-04-27T23:32:25.601Z,2.90
2023-04-27T23:34:55.781Z,2.80
2023-04-27T23:37:24.355Z,2.80
2023-04-27T23:39:51.785Z,2.70
2023-04-27T23:42:19.292Z,2.70
2023-04-27T23:44:46.781Z,2.70
2023-04-27T23:47:14.332Z,2.70
2023-04-27T23:49:44.896Z,2.70
2023-04-27T23:52:12.390Z,2.70
2023-04-27T23:54:39.751Z,2.80
2023-04-27T23:57:07.640Z,2.80
2023-04-27T23:59:35.541Z,2.80
